Main page
METAR-TAF:

METAR-TAF

Airports :

Sultan Hasanuddin International Airport

Makassar, South Sulawesi, Indonesia

latitude: 05-04S, longitude: 119-33E, elevation: 14 m

Current weather observation

The report was made 33 minutes ago, at 22:30 UTC
Wind 3 kt from the South, varying between East/Southeast and South
Temperature 24°C
Humidity 100%
Pressure 1009 hPa
Visibility 10 km or more
Few clouds at a height of 1800 ft

METAR: WAAA 242230Z 17003KT 120V190 9999 FEW018 24/24 Q1009 NOSIG

Time: 06:03 (23:03 UTC)

Forecast

The report was made 6 hours and 3 minutes ago, at 17:00 UTC
Forecast valid from 24 at 18 UTC to 25 at 24 UTC
Wind 3 kt from the East
Visibility: 8000 m
Scattered clouds at a height of 1800 ft
Becoming
from 25 at 02 UTC to 25 at 04 UTC
Wind 10 kt from the West/Northwest

TAF: WAAA 241700Z 2418/2524 10003KT 8000 SCT018 BECMG 2502/2504 29010KT

Weather observations and forecasts of more than 4000 airports (METAR and TAF reports).

The available stations are represented by yellow and red dots on the map.

Hover mouse over dot to see the name of the station.

Then click to see weather observations and forecasts.

To change the map : click on the green buttons with a black cross to zoom in, on the green button with a dash to zoom out, or on the green arrows for adjacent maps.


METAR-TAF: